sensor_id;sensor_type;location;lat;lon;timestamp;temperature;humidity
21823;DHT22;11074;48.596;9.238;2023-06-04T00:02:25;18.00;99.90
21823;DHT22;11074;48.596;9.238;2023-06-04T00:04:51;18.00;99.90
21823;DHT22;11074;48.596;9.238;2023-06-04T00:07:17;17.90;99.90
21823;DHT22;11074;48.596;9.238;2023-06-04T00:09:42;17.90;99.90
21823;DHT22;11074;48.596;9.238;2023-06-04T00:12:09;17.90;99.90
21823;DHT22;11074;48.596;9.238;2023-06-04T00:14:35;17.80;99.90
21823;DHT22;11074;48.596;9.238;2023-06-04T00:17:00;17.80;99.90
21823;DHT22;11074;48.596;9.238;2023-06-04T00:19:26;17.80;99.90
21823;DHT22;11074;48.596;9.238;2023-06-04T00:21:52;17.80;99.90
21823;DHT22;11074;48.596;9.238;2023-06-04T00:24:17;17.80;99.90
21823;DHT22;11074;48.596;9.238;2023-06-04T00:26:44;17.70;99.90
21823;DHT22;11074;48.596;9.238;2023-06-04T00:29:10;17.60;99.90
21823;DHT22;11074;48.596;9.238;2023-06-04T00:31:35;17.60;99.90
21823;DHT22;11074;48.596;9.238;2023-06-04T00:34:03;17.60;99.90
21823;DHT22;11074;48.596;9.238;2023-06-04T00:36:29;17.60;99.90
21823;DHT22;11074;48.596;9.238;2023-06-04T00:38:55;17.50;99.90
21823;DHT22;11074;48.596;9.238;2023-06-04T00:41:21;17.50;99.90
21823;DHT22;11074;48.596;9.238;2023-06-04T00:43:46;17.50;99.90
21823;DHT22;11074;48.596;9.238;2023-06-04T00:46:22;17.50;99.90
21823;DHT22;11074;48.596;9.238;2023-06-04T00:48:50;17.40;99.90
21823;DHT22;11074;48.596;9.238;2023-06-04T00:51:16;17.30;99.90
21823;DHT22;11074;48.596;9.238;2023-06-04T00:53:42;17.30;99.90
21823;DHT22;11074;48.596;9.238;2023-06-04T00:56:08;17.30;99.90
21823;DHT22;11074;48.596;9.238;2023-06-04T00:58:37;17.10;99.90
21823;DHT22;11074;48.596;9.238;2023-06-04T01:03:51;17.20;99.90
21823;DHT22;11074;48.596;9.238;2023-06-04T01:06:39;17.20;99.90
21823;DHT22;11074;48.596;9.238;2023-06-04T01:09:10;17.20;99.90
21823;DHT22;11074;48.596;9.238;2023-06-04T01:11:39;17.20;99.90
21823;DHT22;11074;48.596;9.238;2023-06-04T01:14:07;17.10;99.90
21823;DHT22;11074;48.596;9.238;2023-06-04T01:16:56;17.10;99.90
21823;DHT22;11074;48.596;9.238;2023-06-04T01:28:02;17.00;99.90
21823;DHT22;11074;48.596;9.238;2023-06-04T01:30:31;17.00;99.90
21823;DHT22;11074;48.596;9.238;2023-06-04T01:33:00;16.90;99.90
21823;DHT22;11074;48.596;9.238;2023-06-04T01:35:28;16.90;99.90
21823;DHT22;11074;48.596;9.238;2023-06-04T01:37:57;16.80;99.90
21823;DHT22;11074;48.596;9.238;2023-06-04T01:40:23;16.80;99.90
21823;DHT22;11074;48.596;9.238;2023-06-04T01:42:50;16.70;99.90
21823;DHT22;11074;48.596;9.238;2023-06-04T01:45:16;16.70;99.90
21823;DHT22;11074;48.596;9.238;2023-06-04T01:47:41;16.70;99.90
21823;DHT22;11074;48.596;9.238;2023-06-04T01:50:07;16.70;99.90
21823;DHT22;11074;48.596;9.238;2023-06-04T01:52:35;16.70;99.90
21823;DHT22;11074;48.596;9.238;2023-06-04T01:55:08;16.70;99.90
21823;DHT22;11074;48.596;9.238;2023-06-04T01:57:37;16.70;99.90
21823;DHT22;11074;48.596;9.238;2023-06-04T02:00:05;16.60;99.90
21823;DHT22;11074;48.596;9.238;2023-06-04T02:02:36;16.60;99.90
21823;DHT22;11074;48.596;9.238;2023-06-04T02:05:07;16.50;99.90
21823;DHT22;11074;48.596;9.238;2023-06-04T02:07:38;16.60;99.90
21823;DHT22;11074;48.596;9.238;2023-06-04T02:10:09;16.60;99.90
21823;DHT22;11074;48.596;9.238;2023-06-04T02:12:37;16.60;99.90
21823;DHT22;11074;48.596;9.238;2023-06-04T02:15:04;16.60;99.90
21823;DHT22;11074;48.596;9.238;2023-06-04T02:17:31;16.60;99.90
21823;DHT22;11074;48.596;9.238;2023-06-04T02:20:03;16.50;99.90
21823;DHT22;11074;48.596;9.238;2023-06-04T02:22:29;16.50;99.90
21823;DHT22;11074;48.596;9.238;2023-06-04T02:24:55;16.40;99.90
21823;DHT22;11074;48.596;9.238;2023-06-04T02:27:21;16.40;99.90
21823;DHT22;11074;48.596;9.238;2023-06-04T02:29:47;16.20;99.90
21823;DHT22;11074;48.596;9.238;2023-06-04T02:32:13;16.20;99.90
21823;DHT22;11074;48.596;9.238;2023-06-04T02:34:38;16.20;99.90
21823;DHT22;11074;48.596;9.238;2023-06-04T02:37:04;16.20;99.90
21823;DHT22;11074;48.596;9.238;2023-06-04T02:39:30;16.20;99.90
21823;DHT22;11074;48.596;9.238;2023-06-04T02:41:56;16.20;99.90
21823;DHT22;11074;48.596;9.238;2023-06-04T02:44:22;16.20;99.90
21823;DHT22;11074;48.596;9.238;2023-06-04T02:46:48;16.20;99.90
21823;DHT22;11074;48.596;9.238;2023-06-04T02:49:13;16.20;99.90
21823;DHT22;11074;48.596;9.238;2023-06-04T02:51:40;16.20;99.90
21823;DHT22;11074;48.596;9.238;2023-06-04T02:54:06;16.10;99.90
21823;DHT22;11074;48.596;9.238;2023-06-04T02:56:32;16.00;99.90
21823;DHT22;11074;48.596;9.238;2023-06-04T02:58:59;16.00;99.90
21823;DHT22;11074;48.596;9.238;2023-06-04T03:01:26;16.00;99.90
21823;DHT22;11074;48.596;9.238;2023-06-04T03:03:53;16.00;99.90
21823;DHT22;11074;48.596;9.238;2023-06-04T03:06:22;15.90;99.90
21823;DHT22;11074;48.596;9.238;2023-06-04T03:08:50;15.90;99.90
21823;DHT22;11074;48.596;9.238;2023-06-04T03:11:20;15.90;99.90
21823;DHT22;11074;48.596;9.238;2023-06-04T03:13:46;15.80;99.90
21823;DHT22;11074;48.596;9.238;2023-06-04T03:16:13;15.70;99.90
21823;DHT22;11074;48.596;9.238;2023-06-04T03:18:42;15.60;99.90
21823;DHT22;11074;48.596;9.238;2023-06-04T03:21:08;15.60;99.90
21823;DHT22;11074;48.596;9.238;2023-06-04T03:23:37;15.50;99.90
21823;DHT22;11074;48.596;9.238;2023-06-04T03:26:02;15.40;99.90
21823;DHT22;11074;48.596;9.238;2023-06-04T03:28:29;15.50;99.90
21823;DHT22;11074;48.596;9.238;2023-06-04T03:30:56;15.50;99.90
21823;DHT22;11074;48.596;9.238;2023-06-04T03:33:22;15.50;99.90
21823;DHT22;11074;48.596;9.238;2023-06-04T03:35:48;15.40;99.90
21823;DHT22;11074;48.596;9.238;2023-06-04T03:38:15;15.30;99.90
21823;DHT22;11074;48.596;9.238;2023-06-04T03:40:41;15.40;99.90
21823;DHT22;11074;48.596;9.238;2023-06-04T03:43:07;15.40;99.90
21823;DHT22;11074;48.596;9.238;2023-06-04T03:45:32;15.40;99.90
21823;DHT22;11074;48.596;9.238;2023-06-04T03:47:58;15.50;99.90
21823;DHT22;11074;48.596;9.238;2023-06-04T03:50:24;15.40;99.90
21823;DHT22;11074;48.596;9.238;2023-06-04T03:52:50;15.50;99.90
21823;DHT22;11074;48.596;9.238;2023-06-04T03:55:16;15.40;99.90
21823;DHT22;11074;48.596;9.238;2023-06-04T03:57:41;15.40;99.90
21823;DHT22;11074;48.596;9.238;2023-06-04T04:00:08;15.40;99.90
21823;DHT22;11074;48.596;9.238;2023-06-04T04:02:39;15.40;99.90
21823;DHT22;11074;48.596;9.238;2023-06-04T04:05:06;15.30;99.90
21823;DHT22;11074;48.596;9.238;2023-06-04T04:07:32;15.30;99.90
21823;DHT22;11074;48.596;9.238;2023-06-04T04:09:57;15.30;99.90
21823;DHT22;11074;48.596;9.238;2023-06-04T04:12:23;15.40;99.90
21823;DHT22;11074;48.596;9.238;2023-06-04T04:14:49;15.40;99.90
21823;DHT22;11074;48.596;9.238;2023-06-04T04:17:15;15.40;99.90
21823;DHT22;11074;48.596;9.238;2023-06-04T04:19:41;15.50;99.90
21823;DHT22;11074;48.596;9.238;2023-06-04T04:22:06;15.40;99.90
21823;DHT22;11074;48.596;9.238;2023-06-04T04:24:34;15.40;99.90
21823;DHT22;11074;48.596;9.238;2023-06-04T04:27:02;15.40;99.90
21823;DHT22;11074;48.596;9.238;2023-06-04T04:29:30;15.30;99.90
21823;DHT22;11074;48.596;9.238;2023-06-04T04:32:01;15.40;99.90
21823;DHT22;11074;48.596;9.238;2023-06-04T04:34:27;15.40;99.90
21823;DHT22;11074;48.596;9.238;2023-06-04T04:36:53;15.40;99.90
21823;DHT22;11074;48.596;9.238;2023-06-04T04:39:22;15.40;99.90
21823;DHT22;11074;48.596;9.238;2023-06-04T04:41:49;15.40;99.90
21823;DHT22;11074;48.596;9.238;2023-06-04T04:44:15;15.40;99.90
21823;DHT22;11074;48.596;9.238;2023-06-04T04:46:41;15.40;99.90
21823;DHT22;11074;48.596;9.238;2023-06-04T04:49:07;15.40;99.90
21823;DHT22;11074;48.596;9.238;2023-06-04T04:51:33;15.40;99.90
21823;DHT22;11074;48.596;9.238;2023-06-04T04:53:59;15.50;99.90
21823;DHT22;11074;48.596;9.238;2023-06-04T04:56:28;15.60;99.90
21823;DHT22;11074;48.596;9.238;2023-06-04T04:58:57;15.70;99.90
21823;DHT22;11074;48.596;9.238;2023-06-04T05:01:22;15.70;99.90
21823;DHT22;11074;48.596;9.238;2023-06-04T05:03:49;15.70;99.90
21823;DHT22;11074;48.596;9.238;2023-06-04T05:06:15;15.70;99.90
21823;DHT22;11074;48.596;9.238;2023-06-04T05:08:40;15.80;99.90
21823;DHT22;11074;48.596;9.238;2023-06-04T05:11:07;15.80;99.90
21823;DHT22;11074;48.596;9.238;2023-06-04T05:13:33;15.70;99.90
21823;DHT22;11074;48.596;9.238;2023-06-04T05:15:59;15.70;99.90
21823;DHT22;11074;48.596;9.238;2023-06-04T05:18:36;15.60;99.90
21823;DHT22;11074;48.596;9.238;2023-06-04T05:21:06;15.40;99.90
21823;DHT22;11074;48.596;9.238;2023-06-04T05:23:33;15.30;99.90
21823;DHT22;11074;48.596;9.238;2023-06-04T05:26:03;15.30;99.90
21823;DHT22;11074;48.596;9.238;2023-06-04T05:28:30;15.30;99.90
21823;DHT22;11074;48.596;9.238;2023-06-04T05:30:59;15.20;99.90
21823;DHT22;11074;48.596;9.238;2023-06-04T05:33:30;15.10;99.90
21823;DHT22;11074;48.596;9.238;2023-06-04T05:35:56;15.10;99.90
21823;DHT22;11074;48.596;9.238;2023-06-04T05:38:25;15.10;99.90
21823;DHT22;11074;48.596;9.238;2023-06-04T05:40:54;15.30;99.90
21823;DHT22;11074;48.596;9.238;2023-06-04T05:43:21;15.50;99.90
21823;DHT22;11074;48.596;9.238;2023-06-04T05:45:47;15.70;99.90
21823;DHT22;11074;48.596;9.238;2023-06-04T05:48:13;15.70;99.90
21823;DHT22;11074;48.596;9.238;2023-06-04T05:50:39;15.90;99.90
21823;DHT22;11074;48.596;9.238;2023-06-04T05:53:05;16.00;99.90
21823;DHT22;11074;48.596;9.238;2023-06-04T05:55:31;16.10;99.90
21823;DHT22;11074;48.596;9.238;2023-06-04T05:57:57;16.20;99.90
21823;DHT22;11074;48.596;9.238;2023-06-04T06:00:23;16.30;99.90
21823;DHT22;11074;48.596;9.238;2023-06-04T06:02:50;16.40;99.90
21823;DHT22;11074;48.596;9.238;2023-06-04T06:05:18;16.60;99.90
21823;DHT22;11074;48.596;9.238;2023-06-04T06:07:45;16.60;99.90
21823;DHT22;11074;48.596;9.238;2023-06-04T06:10:12;16.70;99.90
21823;DHT22;11074;48.596;9.238;2023-06-04T06:12:39;16.80;99.90
21823;DHT22;11074;48.596;9.238;2023-06-04T06:15:05;16.80;99.90
21823;DHT22;11074;48.596;9.238;2023-06-04T06:17:32;16.90;99.90
21823;DHT22;11074;48.596;9.238;2023-06-04T06:19:58;16.90;99.90
21823;DHT22;11074;48.596;9.238;2023-06-04T06:22:24;16.90;99.90
21823;DHT22;11074;48.596;9.238;2023-06-04T06:24:51;17.00;99.90
21823;DHT22;11074;48.596;9.238;2023-06-04T06:27:17;17.00;99.90
21823;DHT22;11074;48.596;9.238;2023-06-04T06:29:44;17.00;99.90
21823;DHT22;11074;48.596;9.238;2023-06-04T06:32:10;17.10;99.90
21823;DHT22;11074;48.596;9.238;2023-06-04T06:34:36;17.10;99.90
21823;DHT22;11074;48.596;9.238;2023-06-04T06:37:06;17.10;99.90
21823;DHT22;11074;48.596;9.238;2023-06-04T06:39:32;17.20;99.90
21823;DHT22;11074;48.596;9.238;2023-06-04T06:41:58;17.20;99.90
21823;DHT22;11074;48.596;9.238;2023-06-04T06:44:24;17.20;99.90
21823;DHT22;11074;48.596;9.238;2023-06-04T06:46:50;17.10;99.90
21823;DHT22;11074;48.596;9.238;2023-06-04T06:49:15;17.10;99.90
21823;DHT22;11074;48.596;9.238;2023-06-04T06:51:41;17.00;99.90
21823;DHT22;11074;48.596;9.238;2023-06-04T06:54:10;17.10;99.90
21823;DHT22;11074;48.596;9.238;2023-06-04T06:56:36;17.10;99.90
21823;DHT22;11074;48.596;9.238;2023-06-04T06:59:01;17.20;99.90
21823;DHT22;11074;48.596;9.238;2023-06-04T07:01:27;17.20;99.90
21823;DHT22;11074;48.596;9.238;2023-06-04T07:03:53;17.20;99.90
21823;DHT22;11074;48.596;9.238;2023-06-04T07:06:18;17.30;99.90
21823;DHT22;11074;48.596;9.238;2023-06-04T07:08:44;17.40;99.90
21823;DHT22;11074;48.596;9.238;2023-06-04T07:11:10;17.40;99.90
21823;DHT22;11074;48.596;9.238;2023-06-04T07:13:39;17.50;99.90
21823;DHT22;11074;48.596;9.238;2023-06-04T07:16:05;17.60;99.90
21823;DHT22;11074;48.596;9.238;2023-06-04T07:18:31;17.60;99.90
21823;DHT22;11074;48.596;9.238;2023-06-04T07:20:57;17.70;99.90
21823;DHT22;11074;48.596;9.238;2023-06-04T07:23:23;17.80;99.90
21823;DHT22;11074;48.596;9.238;2023-06-04T07:25:49;17.80;99.90
21823;DHT22;11074;48.596;9.238;2023-06-04T07:28:15;17.80;99.90
21823;DHT22;11074;48.596;9.238;2023-06-04T07:30:40;17.90;99.90
21823;DHT22;11074;48.596;9.238;2023-06-04T07:33:06;17.90;99.90
21823;DHT22;11074;48.596;9.238;2023-06-04T07:35:32;18.00;99.90
21823;DHT22;11074;48.596;9.238;2023-06-04T07:37:57;18.10;99.90
21823;DHT22;11074;48.596;9.238;2023-06-04T07:40:23;18.10;99.90
21823;DHT22;11074;48.596;9.238;2023-06-04T07:42:49;18.10;99.90
21823;DHT22;11074;48.596;9.238;2023-06-04T07:45:15;18.20;99.90
21823;DHT22;11074;48.596;9.238;2023-06-04T07:47:42;18.20;99.90
21823;DHT22;11074;48.596;9.238;2023-06-04T07:50:08;18.30;99.90
21823;DHT22;11074;48.596;9.238;2023-06-04T07:52:35;18.40;99.90
21823;DHT22;11074;48.596;9.238;2023-06-04T07:55:01;18.40;99.90
21823;DHT22;11074;48.596;9.238;2023-06-04T07:57:28;18.50;99.90
21823;DHT22;11074;48.596;9.238;2023-06-04T07:59:54;18.60;99.90
21823;DHT22;11074;48.596;9.238;2023-06-04T08:02:22;18.70;99.90
21823;DHT22;11074;48.596;9.238;2023-06-04T08:04:47;18.70;99.90
21823;DHT22;11074;48.596;9.238;2023-06-04T08:07:13;18.80;99.90
21823;DHT22;11074;48.596;9.238;2023-06-04T08:09:39;18.80;99.90
21823;DHT22;11074;48.596;9.238;2023-06-04T08:12:05;18.90;99.90
21823;DHT22;11074;48.596;9.238;2023-06-04T08:14:30;19.00;99.90
21823;DHT22;11074;48.596;9.238;2023-06-04T08:16:57;19.00;99.90
21823;DHT22;11074;48.596;9.238;2023-06-04T08:19:23;19.10;99.90
21823;DHT22;11074;48.596;9.238;2023-06-04T08:21:49;19.20;99.90
21823;DHT22;11074;48.596;9.238;2023-06-04T08:24:15;19.30;99.90
21823;DHT22;11074;48.596;9.238;2023-06-04T08:26:41;19.40;99.90
21823;DHT22;11074;48.596;9.238;2023-06-04T08:29:07;19.40;99.90
21823;DHT22;11074;48.596;9.238;2023-06-04T08:31:33;19.50;99.90
21823;DHT22;11074;48.596;9.238;2023-06-04T08:33:59;19.50;99.90
21823;DHT22;11074;48.596;9.238;2023-06-04T08:36:26;19.50;99.90
21823;DHT22;11074;48.596;9.238;2023-06-04T08:38:53;19.60;99.90
21823;DHT22;11074;48.596;9.238;2023-06-04T08:41:29;19.60;99.90
21823;DHT22;11074;48.596;9.238;2023-06-04T08:44:05;19.70;99.90
21823;DHT22;11074;48.596;9.238;2023-06-04T08:46:32;19.90;99.90
21823;DHT22;11074;48.596;9.238;2023-06-04T08:49:00;19.90;99.90
21823;DHT22;11074;48.596;9.238;2023-06-04T08:51:28;19.90;99.90
21823;DHT22;11074;48.596;9.238;2023-06-04T08:53:58;20.00;99.90
21823;DHT22;11074;48.596;9.238;2023-06-04T08:56:24;20.10;99.90
21823;DHT22;11074;48.596;9.238;2023-06-04T08:58:51;20.10;99.90
21823;DHT22;11074;48.596;9.238;2023-06-04T09:01:20;20.10;99.90
21823;DHT22;11074;48.596;9.238;2023-06-04T09:03:46;20.20;99.90
21823;DHT22;11074;48.596;9.238;2023-06-04T09:06:12;20.30;99.90
21823;DHT22;11074;48.596;9.238;2023-06-04T09:08:39;20.30;99.90
21823;DHT22;11074;48.596;9.238;2023-06-04T09:11:10;20.40;99.90
21823;DHT22;11074;48.596;9.238;2023-06-04T09:13:40;20.50;99.90
21823;DHT22;11074;48.596;9.238;2023-06-04T09:16:08;20.50;99.90
21823;DHT22;11074;48.596;9.238;2023-06-04T09:18:33;20.60;99.90
21823;DHT22;11074;48.596;9.238;2023-06-04T09:21:04;20.60;99.90
21823;DHT22;11074;48.596;9.238;2023-06-04T09:23:35;20.70;99.90
21823;DHT22;11074;48.596;9.238;2023-06-04T09:26:11;20.70;99.90
21823;DHT22;11074;48.596;9.238;2023-06-04T09:28:45;20.80;99.90
21823;DHT22;11074;48.596;9.238;2023-06-04T09:31:15;20.80;99.90
21823;DHT22;11074;48.596;9.238;2023-06-04T09:33:47;20.90;99.90
21823;DHT22;11074;48.596;9.238;2023-06-04T09:36:15;21.00;99.90
21823;DHT22;11074;48.596;9.238;2023-06-04T09:38:42;21.10;99.90
21823;DHT22;11074;48.596;9.238;2023-06-04T09:41:17;21.20;99.90
21823;DHT22;11074;48.596;9.238;2023-06-04T09:43:45;21.20;99.90
21823;DHT22;11074;48.596;9.238;2023-06-04T09:46:16;21.30;99.90
21823;DHT22;11074;48.596;9.238;2023-06-04T09:48:44;21.40;99.90
21823;DHT22;11074;48.596;9.238;2023-06-04T09:51:15;21.40;99.90
21823;DHT22;11074;48.596;9.238;2023-06-04T09:53:56;21.60;99.90
21823;DHT22;11074;48.596;9.238;2023-06-04T09:56:24;21.70;99.90
21823;DHT22;11074;48.596;9.238;2023-06-04T09:58:59;21.60;99.90
21823;DHT22;11074;48.596;9.238;2023-06-04T10:01:29;21.70;99.90
21823;DHT22;11074;48.596;9.238;2023-06-04T10:03:58;21.80;99.90
21823;DHT22;11074;48.596;9.238;2023-06-04T10:06:33;21.90;99.90
21823;DHT22;11074;48.596;9.238;2023-06-04T10:09:07;21.90;99.90
21823;DHT22;11074;48.596;9.238;2023-06-04T10:11:37;22.00;99.90
21823;DHT22;11074;48.596;9.238;2023-06-04T10:14:09;22.10;99.90
21823;DHT22;11074;48.596;9.238;2023-06-04T10:16:41;22.20;99.90
21823;DHT22;11074;48.596;9.238;2023-06-04T10:19:08;22.30;99.90
21823;DHT22;11074;48.596;9.238;2023-06-04T10:21:34;22.40;99.90
21823;DHT22;11074;48.596;9.238;2023-06-04T10:24:01;22.40;99.90
21823;DHT22;11074;48.596;9.238;2023-06-04T10:26:27;22.50;99.90
21823;DHT22;11074;48.596;9.238;2023-06-04T10:28:53;22.50;99.90
21823;DHT22;11074;48.596;9.238;2023-06-04T10:31:22;22.50;99.90
21823;DHT22;11074;48.596;9.238;2023-06-04T10:33:48;22.60;99.90
21823;DHT22;11074;48.596;9.238;2023-06-04T10:36:21;22.70;99.90
21823;DHT22;11074;48.596;9.238;2023-06-04T10:38:52;22.80;99.90
21823;DHT22;11074;48.596;9.238;2023-06-04T10:41:20;22.90;99.90
21823;DHT22;11074;48.596;9.238;2023-06-04T10:43:51;23.00;99.90
21823;DHT22;11074;48.596;9.238;2023-06-04T10:46:19;23.10;99.90
21823;DHT22;11074;48.596;9.238;2023-06-04T10:48:49;23.30;99.90
21823;DHT22;11074;48.596;9.238;2023-06-04T10:51:31;23.40;99.90
21823;DHT22;11074;48.596;9.238;2023-06-04T10:53:59;23.50;99.90
21823;DHT22;11074;48.596;9.238;2023-06-04T10:56:33;23.60;99.90
21823;DHT22;11074;48.596;9.238;2023-06-04T10:59:17;23.70;99.00
21823;DHT22;11074;48.596;9.238;2023-06-04T11:01:43;23.80;99.80
21823;DHT22;11074;48.596;9.238;2023-06-04T11:04:19;23.90;99.30
21823;DHT22;11074;48.596;9.238;2023-06-04T11:06:46;24.00;98.40
21823;DHT22;11074;48.596;9.238;2023-06-04T11:09:13;24.00;97.90
21823;DHT22;11074;48.596;9.238;2023-06-04T11:11:44;23.90;98.70
21823;DHT22;11074;48.596;9.238;2023-06-04T11:14:10;24.10;98.90
21823;DHT22;11074;48.596;9.238;2023-06-04T11:16:38;24.30;99.50
21823;DHT22;11074;48.596;9.238;2023-06-04T11:19:04;24.50;99.90
21823;DHT22;11074;48.596;9.238;2023-06-04T11:21:30;24.50;97.60
21823;DHT22;11074;48.596;9.238;2023-06-04T11:23:59;24.50;98.20
21823;DHT22;11074;48.596;9.238;2023-06-04T11:26:35;24.50;98.70
21823;DHT22;11074;48.596;9.238;2023-06-04T11:29:06;24.80;97.50
21823;DHT22;11074;48.596;9.238;2023-06-04T11:31:43;25.00;97.40
21823;DHT22;11074;48.596;9.238;2023-06-04T11:34:10;25.40;97.60
21823;DHT22;11074;48.596;9.238;2023-06-04T11:36:47;25.60;97.10
21823;DHT22;11074;48.596;9.238;2023-06-04T11:39:15;25.50;97.00
21823;DHT22;11074;48.596;9.238;2023-06-04T11:41:41;25.40;96.10
21823;DHT22;11074;48.596;9.238;2023-06-04T11:44:08;25.30;96.90
21823;DHT22;11074;48.596;9.238;2023-06-04T11:46:34;25.20;96.50
21823;DHT22;11074;48.596;9.238;2023-06-04T11:49:02;25.30;96.00
21823;DHT22;11074;48.596;9.238;2023-06-04T11:51:28;25.50;96.30
21823;DHT22;11074;48.596;9.238;2023-06-04T11:53:55;25.40;95.40
21823;DHT22;11074;48.596;9.238;2023-06-04T11:56:23;25.20;95.90
21823;DHT22;11074;48.596;9.238;2023-06-04T11:58:51;25.20;97.30
21823;DHT22;11074;48.596;9.238;2023-06-04T12:01:19;25.50;96.30
21823;DHT22;11074;48.596;9.238;2023-06-04T12:03:45;25.90;96.40
21823;DHT22;11074;48.596;9.238;2023-06-04T12:06:16;26.30;94.70
21823;DHT22;11074;48.596;9.238;2023-06-04T12:08:48;26.70;95.00
21823;DHT22;11074;48.596;9.238;2023-06-04T12:11:40;27.00;94.10
21823;DHT22;11074;48.596;9.238;2023-06-04T12:14:07;27.10;94.80
21823;DHT22;11074;48.596;9.238;2023-06-04T12:16:33;27.30;93.80
21823;DHT22;11074;48.596;9.238;2023-06-04T12:19:07;27.50;93.50
21823;DHT22;11074;48.596;9.238;2023-06-04T12:21:34;27.30;93.90
21823;DHT22;11074;48.596;9.238;2023-06-04T12:24:10;26.70;95.20
21823;DHT22;11074;48.596;9.238;2023-06-04T12:26:37;26.60;94.50
21823;DHT22;11074;48.596;9.238;2023-06-04T12:29:17;26.30;94.80
21823;DHT22;11074;48.596;9.238;2023-06-04T12:31:45;26.50;94.30
21823;DHT22;11074;48.596;9.238;2023-06-04T12:34:13;26.80;94.70
21823;DHT22;11074;48.596;9.238;2023-06-04T12:36:40;27.30;94.10
21823;DHT22;11074;48.596;9.238;2023-06-04T12:39:07;27.60;93.90
21823;DHT22;11074;48.596;9.238;2023-06-04T12:41:33;27.30;94.10
21823;DHT22;11074;48.596;9.238;2023-06-04T12:44:00;26.50;93.10
21823;DHT22;11074;48.596;9.238;2023-06-04T12:46:26;26.20;93.80
21823;DHT22;11074;48.596;9.238;2023-06-04T12:48:53;26.60;93.10
21823;DHT22;11074;48.596;9.238;2023-06-04T12:51:20;27.10;93.40
21823;DHT22;11074;48.596;9.238;2023-06-04T12:53:47;27.50;92.90
21823;DHT22;11074;48.596;9.238;2023-06-04T12:56:13;27.90;92.00
21823;DHT22;11074;48.596;9.238;2023-06-04T12:58:39;28.30;91.80
21823;DHT22;11074;48.596;9.238;2023-06-04T13:01:05;28.30;91.10
21823;DHT22;11074;48.596;9.238;2023-06-04T13:03:31;28.50;91.90
21823;DHT22;11074;48.596;9.238;2023-06-04T13:05:58;28.70;91.90
21823;DHT22;11074;48.596;9.238;2023-06-04T13:08:24;28.40;91.00
21823;DHT22;11074;48.596;9.238;2023-06-04T13:10:51;27.90;92.30
21823;DHT22;11074;48.596;9.238;2023-06-04T13:13:18;27.40;92.20
21823;DHT22;11074;48.596;9.238;2023-06-04T13:15:44;27.00;91.10
21823;DHT22;11074;48.596;9.238;2023-06-04T13:18:11;26.70;90.50
21823;DHT22;11074;48.596;9.238;2023-06-04T13:20:37;26.90;90.30
21823;DHT22;11074;48.596;9.238;2023-06-04T13:23:05;27.10;90.00
21823;DHT22;11074;48.596;9.238;2023-06-04T13:25:30;27.20;90.10
21823;DHT22;11074;48.596;9.238;2023-06-04T13:27:59;27.60;90.40
21823;DHT22;11074;48.596;9.238;2023-06-04T13:30:25;27.80;90.50
21823;DHT22;11074;48.596;9.238;2023-06-04T13:32:52;28.10;90.60
21823;DHT22;11074;48.596;9.238;2023-06-04T13:35:18;28.40;91.00
21823;DHT22;11074;48.596;9.238;2023-06-04T13:37:44;28.10;91.50
21823;DHT22;11074;48.596;9.238;2023-06-04T13:40:09;27.60;90.70
21823;DHT22;11074;48.596;9.238;2023-06-04T13:42:35;27.10;91.30
21823;DHT22;11074;48.596;9.238;2023-06-04T13:45:01;26.90;92.10
21823;DHT22;11074;48.596;9.238;2023-06-04T13:47:28;26.80;90.40
21823;DHT22;11074;48.596;9.238;2023-06-04T13:49:53;27.30;91.40
21823;DHT22;11074;48.596;9.238;2023-06-04T13:52:19;27.80;88.90
21823;DHT22;11074;48.596;9.238;2023-06-04T13:54:44;28.10;89.60
21823;DHT22;11074;48.596;9.238;2023-06-04T13:57:10;28.50;88.50
21823;DHT22;11074;48.596;9.238;2023-06-04T13:59:37;28.60;91.20
21823;DHT22;11074;48.596;9.238;2023-06-04T14:02:03;28.70;88.50
21823;DHT22;11074;48.596;9.238;2023-06-04T14:04:29;28.90;89.60
21823;DHT22;11074;48.596;9.238;2023-06-04T14:06:55;28.90;86.70
21823;DHT22;11074;48.596;9.238;2023-06-04T14:09:20;28.90;90.00
21823;DHT22;11074;48.596;9.238;2023-06-04T14:11:46;28.40;86.90
21823;DHT22;11074;48.596;9.238;2023-06-04T14:14:19;27.90;86.90
21823;DHT22;11074;48.596;9.238;2023-06-04T14:16:45;27.80;87.90
21823;DHT22;11074;48.596;9.238;2023-06-04T14:19:11;28.10;88.60
21823;DHT22;11074;48.596;9.238;2023-06-04T14:21:37;28.40;86.20
21823;DHT22;11074;48.596;9.238;2023-06-04T14:24:03;28.60;90.10
21823;DHT22;11074;48.596;9.238;2023-06-04T14:26:29;28.90;90.90
21823;DHT22;11074;48.596;9.238;2023-06-04T14:28:56;29.00;89.50
21823;DHT22;11074;48.596;9.238;2023-06-04T14:31:21;29.10;90.20
21823;DHT22;11074;48.596;9.238;2023-06-04T14:33:47;29.30;91.50
21823;DHT22;11074;48.596;9.238;2023-06-04T14:36:13;29.30;90.90
21823;DHT22;11074;48.596;9.238;2023-06-04T14:38:39;29.00;90.50
21823;DHT22;11074;48.596;9.238;2023-06-04T14:41:05;28.50;90.30
21823;DHT22;11074;48.596;9.238;2023-06-04T14:43:30;28.00;90.70
21823;DHT22;11074;48.596;9.238;2023-06-04T14:45:56;27.70;93.50
21823;DHT22;11074;48.596;9.238;2023-06-04T14:48:22;27.30;90.40
21823;DHT22;11074;48.596;9.238;2023-06-04T14:50:48;27.20;93.30
21823;DHT22;11074;48.596;9.238;2023-06-04T14:53:15;27.20;91.80
21823;DHT22;11074;48.596;9.238;2023-06-04T14:55:42;27.30;93.00
21823;DHT22;11074;48.596;9.238;2023-06-04T14:58:07;27.40;89.00
21823;DHT22;11074;48.596;9.238;2023-06-04T15:00:33;27.70;87.80
21823;DHT22;11074;48.596;9.238;2023-06-04T15:02:59;27.70;85.10
21823;DHT22;11074;48.596;9.238;2023-06-04T15:05:27;27.80;88.20
21823;DHT22;11074;48.596;9.238;2023-06-04T15:07:53;28.00;88.10
21823;DHT22;11074;48.596;9.238;2023-06-04T15:10:18;28.10;85.90
21823;DHT22;11074;48.596;9.238;2023-06-04T15:12:44;28.20;87.90
21823;DHT22;11074;48.596;9.238;2023-06-04T15:15:10;28.40;88.40
21823;DHT22;11074;48.596;9.238;2023-06-04T15:17:36;28.60;85.80
21823;DHT22;11074;48.596;9.238;2023-06-04T15:20:05;28.70;85.30
21823;DHT22;11074;48.596;9.238;2023-06-04T15:22:31;28.80;85.90
21823;DHT22;11074;48.596;9.238;2023-06-04T15:24:57;28.60;83.20
21823;DHT22;11074;48.596;9.238;2023-06-04T15:27:22;28.50;84.70
21823;DHT22;11074;48.596;9.238;2023-06-04T15:29:48;28.70;89.30
21823;DHT22;11074;48.596;9.238;2023-06-04T15:32:14;28.80;90.40
21823;DHT22;11074;48.596;9.238;2023-06-04T15:34:40;28.90;85.20
21823;DHT22;11074;48.596;9.238;2023-06-04T15:37:06;28.70;88.70
21823;DHT22;11074;48.596;9.238;2023-06-04T15:39:33;28.50;87.00
21823;DHT22;11074;48.596;9.238;2023-06-04T15:41:59;28.30;85.30
21823;DHT22;11074;48.596;9.238;2023-06-04T15:44:24;28.40;85.60